createdAt,value
2023-05-21T00:02:24.441Z,88.57
2023-05-21T00:04:52.032Z,88.87
2023-05-21T00:07:20.539Z,89.30
2023-05-21T00:09:48.284Z,89.57
2023-05-21T00:12:15.857Z,89.13
2023-05-21T00:14:43.518Z,89.15
2023-05-21T00:17:11.584Z,89.55
2023-05-21T00:19:39.993Z,88.79
2023-05-21T00:22:07.586Z,88.64
2023-05-21T00:24:35.196Z,88.98
2023-05-21T00:27:02.967Z,88.77
2023-05-21T00:29:30.545Z,88.67
2023-05-21T00:31:58.195Z,88.74
2023-05-21T00:34:26.592Z,88.37
2023-05-21T00:36:55.961Z,88.61
2023-05-21T00:39:24.262Z,89.21
2023-05-21T00:41:51.960Z,88.70
2023-05-21T00:44:20.611Z,89.23
2023-05-21T00:46:49.017Z,89.08
2023-05-21T00:49:17.107Z,88.71
2023-05-21T00:51:45.377Z,88.65
2023-05-21T00:54:13.117Z,89.00
2023-05-21T00:56:41.626Z,89.08
2023-05-21T00:59:09.298Z,89.02
2023-05-21T01:01:37.494Z,88.78
2023-05-21T01:04:05.431Z,88.98
2023-05-21T01:06:35.780Z,89.30
2023-05-21T01:09:06.494Z,88.84
2023-05-21T01:11:51.110Z,89.13
2023-05-21T01:14:20.818Z,89.40
2023-05-21T01:16:50.398Z,89.53
2023-05-21T01:19:23.124Z,89.46
2023-05-21T01:22:00.509Z,89.13
2023-05-21T01:24:28.225Z,89.72
2023-05-21T01:26:56.161Z,89.63
2023-05-21T01:29:23.814Z,90.15
2023-05-21T01:32:10.056Z,89.82
2023-05-21T01:35:13.005Z,89.99
2023-05-21T01:37:53.258Z,90.15
2023-05-21T01:40:36.202Z,90.35
2023-05-21T01:43:06.515Z,90.02
2023-05-21T01:45:39.552Z,90.47
2023-05-21T01:48:09.440Z,90.69
2023-05-21T01:50:39.393Z,90.64
2023-05-21T01:53:07.219Z,90.67
2023-05-21T01:55:39.567Z,90.37
2023-05-21T01:58:08.289Z,90.54
2023-05-21T02:00:37.531Z,90.56
2023-05-21T02:03:05.459Z,90.84
2023-05-21T02:05:33.077Z,90.89
2023-05-21T02:08:01.272Z,90.69
2023-05-21T02:10:29.315Z,90.63
2023-05-21T02:12:57.020Z,90.71
2023-05-21T02:15:24.990Z,90.59
2023-05-21T02:17:53.203Z,90.94
2023-05-21T02:20:22.407Z,90.99
2023-05-21T02:22:50.363Z,91.23
2023-05-21T02:25:20.263Z,91.06
2023-05-21T02:27:52.910Z,90.94
2023-05-21T02:30:21.277Z,91.05
2023-05-21T02:32:50.026Z,91.53
2023-05-21T02:35:17.728Z,91.31
2023-05-21T02:37:45.458Z,91.36
2023-05-21T02:40:13.249Z,91.42
2023-05-21T02:42:41.601Z,91.65
2023-05-21T02:45:13.380Z,91.82
2023-05-21T02:47:43.494Z,92.19
2023-05-21T02:50:11.320Z,91.95
2023-05-21T02:52:47.314Z,92.43
2023-05-21T02:55:15.124Z,92.40
2023-05-21T02:57:42.660Z,91.94
2023-05-21T03:00:11.595Z,92.33
2023-05-21T03:02:40.836Z,92.33
2023-05-21T03:05:09.602Z,91.49
2023-05-21T03:07:37.294Z,91.75
2023-05-21T03:10:05.969Z,91.70
2023-05-21T03:12:33.540Z,91.84
2023-05-21T03:15:01.494Z,92.08
2023-05-21T03:17:30.525Z,92.08
2023-05-21T03:19:58.127Z,92.43
2023-05-21T03:22:25.828Z,92.01
2023-05-21T03:24:53.706Z,92.33
2023-05-21T03:27:21.485Z,92.24
2023-05-21T03:29:49.437Z,92.53
2023-05-21T03:32:17.663Z,92.47
2023-05-21T03:34:47.416Z,92.65
2023-05-21T03:37:16.600Z,93.06
2023-05-21T03:39:44.206Z,92.76
2023-05-21T03:42:14.233Z,92.65
2023-05-21T03:44:47.106Z,92.99
2023-05-21T03:47:27.261Z,92.89
2023-05-21T03:49:55.334Z,93.11
2023-05-21T03:52:22.951Z,93.51
2023-05-21T03:54:50.834Z,93.10
2023-05-21T03:57:18.497Z,93.41
2023-05-21T03:59:47.504Z,93.43
2023-05-21T04:02:16.100Z,93.32
2023-05-21T04:04:44.583Z,93.00
2023-05-21T04:07:15.339Z,93.39
2023-05-21T04:09:43.195Z,93.10
2023-05-21T04:12:11.151Z,92.97
2023-05-21T04:18:46.961Z,93.57
2023-05-21T04:21:16.422Z,93.48
2023-05-21T04:23:44.492Z,93.16
2023-05-21T04:26:22.900Z,93.17
2023-05-21T04:28:50.595Z,93.77
2023-05-21T04:31:18.275Z,92.97
2023-05-21T04:33:48.193Z,92.86
2023-05-21T04:36:17.266Z,93.25
2023-05-21T04:38:45.929Z,93.07
2023-05-21T04:41:14.378Z,93.21
2023-05-21T04:43:44.174Z,93.22
2023-05-21T04:46:14.094Z,92.88
2023-05-21T04:48:42.408Z,93.28
2023-05-21T04:51:10.192Z,93.35
2023-05-21T04:53:38.947Z,93.24
2023-05-21T04:56:07.381Z,93.31
2023-05-21T04:58:34.970Z,92.77
2023-05-21T05:01:04.232Z,92.85
2023-05-21T05:03:32.057Z,92.74
2023-05-21T05:06:00.509Z,93.09
2023-05-21T05:08:28.212Z,92.80
2023-05-21T05:10:56.050Z,92.48
2023-05-21T05:13:23.676Z,93.17
2023-05-21T05:15:54.404Z,93.32
2023-05-21T05:18:22.403Z,92.95
2023-05-21T05:20:50.073Z,92.60
2023-05-21T05:23:17.800Z,92.51
2023-05-21T05:25:45.722Z,92.82
2023-05-21T05:28:13.394Z,92.68
2023-05-21T05:30:41.042Z,92.64
2023-05-21T05:33:21.116Z,93.08
2023-05-21T05:35:49.561Z,92.86
2023-05-21T05:38:17.579Z,92.34
2023-05-21T05:40:45.450Z,93.28
2023-05-21T05:43:13.075Z,93.07
2023-05-21T05:45:40.754Z,93.27
2023-05-21T05:48:13.396Z,92.82
2023-05-21T05:50:41.134Z,92.71
2023-05-21T05:53:08.844Z,93.00
2023-05-21T05:55:36.848Z,92.58
2023-05-21T05:58:04.715Z,92.37
2023-05-21T06:00:34.335Z,91.97
2023-05-21T06:03:04.216Z,92.39
2023-05-21T06:05:32.037Z,91.93
2023-05-21T06:07:59.643Z,91.95
2023-05-21T06:10:27.351Z,91.60
2023-05-21T06:12:54.960Z,91.56
2023-05-21T06:15:22.766Z,91.83
2023-05-21T06:17:50.502Z,91.08
2023-05-21T06:20:18.360Z,90.68
2023-05-21T06:22:46.050Z,90.38
2023-05-21T06:25:14.671Z,90.73
2023-05-21T06:27:42.304Z,90.49
2023-05-21T06:30:17.016Z,90.25
2023-05-21T06:32:45.559Z,89.64
2023-05-21T06:35:13.637Z,89.63
2023-05-21T06:37:41.438Z,89.71
2023-05-21T06:40:09.716Z,89.83
2023-05-21T06:42:37.946Z,89.35
2023-05-21T06:45:37.915Z,89.30
2023-05-21T06:48:18.470Z,89.29
2023-05-21T06:50:47.831Z,89.47
2023-05-21T06:53:16.591Z,88.93
2023-05-21T06:55:46.171Z,89.06
2023-05-21T06:58:17.104Z,89.21
2023-05-21T07:00:45.023Z,88.67
2023-05-21T07:03:12.910Z,88.72
2023-05-21T07:05:40.768Z,87.92
2023-05-21T07:08:09.120Z,88.17
2023-05-21T07:10:38.318Z,87.44
2023-05-21T07:13:06.187Z,87.83
2023-05-21T07:15:34.182Z,87.24
2023-05-21T07:18:06.965Z,87.02
2023-05-21T07:20:35.595Z,87.39
2023-05-21T07:23:06.788Z,86.93
2023-05-21T07:25:34.779Z,86.84
2023-05-21T07:28:03.606Z,87.02
2023-05-21T07:30:32.272Z,86.67
2023-05-21T07:32:59.976Z,86.65
2023-05-21T07:35:27.699Z,86.44
2023-05-21T07:37:55.915Z,86.27
2023-05-21T07:40:23.587Z,86.56
2023-05-21T07:42:52.339Z,86.68
2023-05-21T07:45:22.986Z,86.45
2023-05-21T07:47:50.944Z,86.05
2023-05-21T07:50:18.722Z,86.09
2023-05-21T07:52:48.297Z,86.00
2023-05-21T07:55:16.506Z,85.91
2023-05-21T07:57:45.519Z,85.69
2023-05-21T08:00:16.104Z,85.56
2023-05-21T08:02:47.867Z,85.38
2023-05-21T08:05:16.666Z,84.99
2023-05-21T08:07:46.424Z,84.55
2023-05-21T08:10:15.369Z,84.29
2023-05-21T08:12:44.046Z,84.32
2023-05-21T08:15:11.763Z,84.39
2023-05-21T08:17:44.483Z,84.23
2023-05-21T08:20:13.584Z,83.83
2023-05-21T08:22:43.334Z,83.90
2023-05-21T08:25:11.322Z,83.97
2023-05-21T08:27:39.131Z,83.55
2023-05-21T08:30:07.600Z,84.16
2023-05-21T08:32:35.943Z,84.09
2023-05-21T08:35:03.904Z,83.89
2023-05-21T08:37:44.071Z,83.48
2023-05-21T08:40:46.398Z,83.81
2023-05-21T08:43:16.593Z,83.30
2023-05-21T08:45:56.656Z,82.54
2023-05-21T08:48:28.063Z,82.80
2023-05-21T08:50:55.830Z,82.70
2023-05-21T08:53:33.075Z,81.98
2023-05-21T08:56:01.797Z,82.03
2023-05-21T08:58:46.926Z,81.49
2023-05-21T09:01:19.688Z,81.53
2023-05-21T09:03:54.430Z,81.48
2023-05-21T09:06:26.458Z,81.56
2023-05-21T09:09:06.729Z,81.37
2023-05-21T09:11:42.472Z,81.15
2023-05-21T09:14:11.689Z,80.82
2023-05-21T09:17:02.310Z,80.76
2023-05-21T09:19:32.409Z,81.06
2023-05-21T09:22:04.662Z,80.58
2023-05-21T09:24:36.227Z,80.27
2023-05-21T09:27:07.830Z,80.28
2023-05-21T09:29:36.270Z,80.01
2023-05-21T09:32:08.046Z,79.49
2023-05-21T09:34:38.934Z,79.32
2023-05-21T09:37:16.516Z,79.32
2023-05-21T09:39:54.475Z,79.20
2023-05-21T09:42:22.385Z,79.49
2023-05-21T09:44:50.942Z,79.11
2023-05-21T09:47:21.324Z,78.95
2023-05-21T09:49:49.429Z,78.73
2023-05-21T09:52:27.668Z,78.31
2023-05-21T09:54:55.386Z,78.47
2023-05-21T09:57:29.599Z,78.25
2023-05-21T09:59:57.219Z,78.45
2023-05-21T10:02:26.958Z,77.73
2023-05-21T10:04:57.237Z,77.89
2023-05-21T10:07:27.450Z,77.62
2023-05-21T10:09:57.381Z,77.11
2023-05-21T10:12:25.827Z,76.54
2023-05-21T10:15:16.182Z,76.32
2023-05-21T10:17:46.829Z,76.11
2023-05-21T10:20:14.641Z,76.07
2023-05-21T10:22:42.613Z,76.14
2023-05-21T10:25:10.814Z,75.50
2023-05-21T10:27:38.660Z,75.67
2023-05-21T10:30:07.196Z,75.16
2023-05-21T10:32:35.330Z,74.47
2023-05-21T10:35:03.267Z,74.27
2023-05-21T10:37:31.656Z,73.78
2023-05-21T10:39:59.287Z,73.71
2023-05-21T10:42:32.672Z,73.04
2023-05-21T10:45:28.124Z,72.77
2023-05-21T10:48:24.013Z,72.57
2023-05-21T10:51:14.185Z,72.19
2023-05-21T10:53:54.458Z,72.05
2023-05-21T10:56:28.776Z,71.92
2023-05-21T10:59:22.323Z,71.82
2023-05-21T11:01:53.269Z,72.56
2023-05-21T11:04:27.700Z,72.45
2023-05-21T11:06:58.758Z,72.76
2023-05-21T11:09:27.352Z,73.02
2023-05-21T11:11:59.308Z,72.61
2023-05-21T11:14:38.365Z,72.45
2023-05-21T11:17:40.775Z,71.62
2023-05-21T11:20:14.396Z,71.91
2023-05-21T11:22:42.129Z,71.30
2023-05-21T11:25:10.230Z,70.89
2023-05-21T11:27:41.936Z,70.79
2023-05-21T11:30:14.850Z,70.94
2023-05-21T11:33:07.592Z,70.96
2023-05-21T11:35:51.683Z,70.73
2023-05-21T11:38:19.381Z,71.00
2023-05-21T11:41:03.912Z,70.92
2023-05-21T11:43:31.720Z,70.75
2023-05-21T11:45:59.533Z,70.44
2023-05-21T11:48:29.425Z,69.87
2023-05-21T11:50:58.454Z,70.09
2023-05-21T11:53:26.103Z,70.13
2023-05-21T11:55:57.693Z,69.77
2023-05-21T11:58:25.870Z,69.46
2023-05-21T12:00:53.462Z,69.81
2023-05-21T12:03:27.012Z,69.61
2023-05-21T12:05:55.025Z,69.27
2023-05-21T12:08:27.191Z,69.06
2023-05-21T12:11:01.953Z,68.73
2023-05-21T12:13:30.008Z,69.46
2023-05-21T12:15:57.685Z,69.71
2023-05-21T12:18:26.668Z,69.69
2023-05-21T12:20:54.395Z,70.38
2023-05-21T12:23:26.170Z,69.91
2023-05-21T12:25:54.489Z,69.62
2023-05-21T12:28:23.082Z,69.53
2023-05-21T12:30:51.219Z,69.16
2023-05-21T12:33:19.108Z,69.03
2023-05-21T12:35:50.534Z,69.38
2023-05-21T12:38:18.461Z,68.22
2023-05-21T12:40:46.148Z,67.67
2023-05-21T12:43:13.885Z,66.82
2023-05-21T12:45:41.612Z,66.31
2023-05-21T12:48:09.512Z,65.90
2023-05-21T12:50:40.704Z,65.12
2023-05-21T12:53:10.987Z,64.86
2023-05-21T12:55:38.924Z,64.32
2023-05-21T12:58:09.160Z,63.65
2023-05-21T13:00:37.478Z,63.30
2023-05-21T13:03:06.728Z,63.09
2023-05-21T13:05:35.763Z,62.59
2023-05-21T13:08:03.690Z,62.27
2023-05-21T13:10:31.347Z,62.06
2023-05-21T13:12:59.095Z,61.45
2023-05-21T13:15:26.839Z,61.34
2023-05-21T13:17:56.782Z,61.14
2023-05-21T13:20:27.614Z,61.44
2023-05-21T13:22:55.540Z,60.84
2023-05-21T13:25:27.524Z,60.60
2023-05-21T13:27:55.569Z,60.10
2023-05-21T13:30:23.268Z,60.41
2023-05-21T13:32:52.426Z,60.43
2023-05-21T13:35:20.489Z,60.23
2023-05-21T13:37:48.045Z,60.16
2023-05-21T13:40:17.014Z,59.96
2023-05-21T13:42:46.221Z,59.99
2023-05-21T13:45:15.920Z,59.81
2023-05-21T13:47:45.508Z,59.86
2023-05-21T13:50:13.870Z,59.92
2023-05-21T13:52:41.706Z,59.80
2023-05-21T13:55:10.839Z,59.46
2023-05-21T13:57:40.730Z,59.77
2023-05-21T14:00:11.131Z,60.10
2023-05-21T14:02:38.905Z,60.66
2023-05-21T14:05:06.947Z,60.40
2023-05-21T14:07:34.819Z,60.50
2023-05-21T14:10:02.980Z,60.41
2023-05-21T14:12:31.372Z,60.48
2023-05-21T14:14:59.061Z,60.92
2023-05-21T14:17:26.777Z,60.99
2023-05-21T14:19:55.859Z,61.01
2023-05-21T14:22:23.719Z,60.88
2023-05-21T14:24:51.456Z,60.77
2023-05-21T14:27:19.092Z,61.00
2023-05-21T14:29:46.722Z,60.61
2023-05-21T14:32:14.470Z,60.50
2023-05-21T14:34:42.067Z,60.74
2023-05-21T14:37:09.776Z,60.48
2023-05-21T14:39:37.393Z,60.40
2023-05-21T14:42:05.470Z,60.56
2023-05-21T14:44:33.125Z,61.09
2023-05-21T14:47:00.766Z,61.53
2023-05-21T14:49:28.418Z,61.94
2023-05-21T14:51:56.080Z,62.16
2023-05-21T14:54:23.794Z,62.20
2023-05-21T14:56:51.446Z,61.93
2023-05-21T14:59:19.057Z,62.06
2023-05-21T15:01:46.802Z,62.55
2023-05-21T15:04:14.560Z,62.03
2023-05-21T15:06:42.595Z,61.92
2023-05-21T15:09:10.204Z,61.54
2023-05-21T15:11:39.881Z,61.43
2023-05-21T15:14:07.441Z,60.95
2023-05-21T15:16:35.003Z,61.02
2023-05-21T15:19:03.612Z,61.16
2023-05-21T15:21:31.557Z,60.87
2023-05-21T15:23:59.167Z,60.58
2023-05-21T15:26:27.122Z,60.13
2023-05-21T15:28:54.795Z,60.02
2023-05-21T15:31:22.697Z,59.62
2023-05-21T15:33:50.337Z,59.20
2023-05-21T15:36:17.874Z,59.07
2023-05-21T15:38:45.404Z,58.82
2023-05-21T15:41:13.050Z,58.71
2023-05-21T15:43:42.199Z,58.64
2023-05-21T15:46:11.293Z,58.62
2023-05-21T15:48:38.966Z,58.30
2023-05-21T15:51:06.646Z,58.00
2023-05-21T15:53:34.329Z,58.04
2023-05-21T15:56:03.382Z,58.57
2023-05-21T15:58:31.391Z,59.48
2023-05-21T16:00:59.152Z,60.20
2023-05-21T16:03:26.926Z,61.22
2023-05-21T16:05:54.642Z,62.03
2023-05-21T16:08:22.295Z,62.75
2023-05-21T16:10:49.909Z,63.52
2023-05-21T16:13:17.659Z,64.15
2023-05-21T16:15:45.365Z,65.31
2023-05-21T16:18:13.099Z,65.56
2023-05-21T16:20:40.710Z,66.25
2023-05-21T16:23:08.860Z,66.79
2023-05-21T16:25:36.940Z,67.40
2023-05-21T16:28:05.034Z,67.57
2023-05-21T16:30:32.685Z,67.90
2023-05-21T16:33:00.877Z,68.42
2023-05-21T16:35:28.698Z,69.00
2023-05-21T16:37:56.302Z,69.46
2023-05-21T16:40:24.166Z,69.63
2023-05-21T16:42:53.398Z,69.91
2023-05-21T16:45:21.684Z,70.51
2023-05-21T16:47:51.089Z,70.39
2023-05-21T16:50:21.847Z,70.15
2023-05-21T16:52:49.592Z,70.40
2023-05-21T16:55:17.199Z,70.54
2023-05-21T16:57:44.852Z,70.43
2023-05-21T17:00:12.897Z,70.54
2023-05-21T17:02:40.807Z,70.67
2023-05-21T17:05:08.666Z,71.08
2023-05-21T17:07:36.395Z,71.25
2023-05-21T17:10:05.714Z,71.31
2023-05-21T17:12:33.362Z,71.41
2023-05-21T17:15:01.122Z,71.39
2023-05-21T17:17:28.816Z,71.27
2023-05-21T17:19:56.741Z,71.15
2023-05-21T17:22:24.398Z,71.20
2023-05-21T17:24:52.097Z,71.41
2023-05-21T17:27:20.005Z,71.37
2023-05-21T17:29:47.616Z,71.71
2023-05-21T17:32:15.182Z,71.98
2023-05-21T17:34:43.652Z,71.99
2023-05-21T17:37:11.387Z,71.89
2023-05-21T17:39:39.002Z,72.07
2023-05-21T17:42:06.732Z,71.95
2023-05-21T17:44:34.273Z,71.89
2023-05-21T17:47:01.952Z,72.21
2023-05-21T17:49:29.528Z,72.34
2023-05-21T17:51:57.115Z,72.22
2023-05-21T17:54:24.683Z,72.05
2023-05-21T17:56:52.515Z,72.16
2023-05-21T17:59:21.496Z,72.16
2023-05-21T18:01:49.374Z,72.46
2023-05-21T18:04:17.078Z,72.59
2023-05-21T18:06:44.832Z,72.68
2023-05-21T18:09:14.409Z,72.69
2023-05-21T18:11:44.188Z,72.33
2023-05-21T18:14:11.969Z,72.10
2023-05-21T18:16:39.982Z,71.90
2023-05-21T18:19:07.726Z,71.78
2023-05-21T18:21:35.539Z,71.63
2023-05-21T18:24:03.624Z,71.39
2023-05-21T18:26:31.653Z,71.59
2023-05-21T18:28:59.399Z,71.63
2023-05-21T18:31:27.211Z,71.93
2023-05-21T18:33:54.965Z,72.19
2023-05-21T18:36:22.609Z,72.36
2023-05-21T18:38:50.918Z,72.42
2023-05-21T18:41:19.933Z,72.81
2023-05-21T18:43:47.521Z,72.98
2023-05-21T18:46:15.177Z,73.15
2023-05-21T18:48:43.066Z,73.28
2023-05-21T18:51:10.742Z,73.38
2023-05-21T18:53:39.308Z,73.07
2023-05-21T18:56:10.414Z,72.84
2023-05-21T18:58:38.713Z,72.77
2023-05-21T19:01:06.594Z,72.84
2023-05-21T19:03:34.243Z,73.36
2023-05-21T19:06:01.932Z,73.33
2023-05-21T19:08:29.586Z,73.61
2023-05-21T19:10:57.283Z,73.46
2023-05-21T19:13:25.053Z,73.99
2023-05-21T19:15:53.375Z,74.03
2023-05-21T19:18:21.094Z,74.28
2023-05-21T19:20:49.078Z,74.12
2023-05-21T19:23:16.706Z,74.00
2023-05-21T19:25:44.311Z,74.67
2023-05-21T19:28:11.970Z,74.59
2023-05-21T19:30:39.836Z,74.71
2023-05-21T19:33:07.892Z,75.00
2023-05-21T19:35:36.214Z,74.47
2023-05-21T19:38:05.556Z,74.81
2023-05-21T19:40:33.774Z,74.86
2023-05-21T19:43:02.834Z,74.92
2023-05-21T19:45:30.413Z,74.98
2023-05-21T19:47:59.219Z,74.99
2023-05-21T19:50:28.867Z,75.03
2023-05-21T19:52:57.367Z,74.97
2023-05-21T19:55:25.174Z,75.13
2023-05-21T19:57:52.818Z,75.22
2023-05-21T20:00:20.752Z,75.33
2023-05-21T20:02:48.387Z,74.85
2023-05-21T20:05:16.319Z,75.60
2023-05-21T20:07:44.891Z,75.65
2023-05-21T20:10:12.552Z,75.42
2023-05-21T20:12:40.452Z,75.68
2023-05-21T20:15:08.334Z,75.89
2023-05-21T20:17:36.191Z,75.66
2023-05-21T20:20:11.254Z,75.54
2023-05-21T20:22:39.052Z,75.95
2023-05-21T20:25:08.758Z,76.04
2023-05-21T20:27:38.965Z,76.42
2023-05-21T20:30:08.080Z,76.30
2023-05-21T20:32:36.330Z,76.24
2023-05-21T20:35:04.901Z,76.54
2023-05-21T20:37:33.962Z,76.13
2023-05-21T20:40:01.686Z,76.77
2023-05-21T20:42:34.263Z,76.52
2023-05-21T20:45:03.190Z,76.91
2023-05-21T20:47:32.037Z,76.75
2023-05-21T20:50:00.249Z,76.99
2023-05-21T20:52:27.942Z,76.67
2023-05-21T20:54:55.758Z,76.33
2023-05-21T20:57:24.199Z,76.82
2023-05-21T20:59:53.478Z,76.72
2023-05-21T21:02:21.761Z,76.88
2023-05-21T21:04:50.799Z,77.47
2023-05-21T21:07:19.010Z,76.93
2023-05-21T21:09:47.423Z,76.84
2023-05-21T21:12:25.954Z,76.88
2023-05-21T21:14:54.726Z,77.23
2023-05-21T21:17:22.559Z,77.41
2023-05-21T21:19:50.249Z,76.98
2023-05-21T21:22:18.562Z,77.19
2023-05-21T21:24:46.350Z,76.99
2023-05-21T21:27:13.987Z,77.22
2023-05-21T21:29:41.687Z,77.28
2023-05-21T21:32:09.455Z,77.42
2023-05-21T21:34:37.217Z,77.56
2023-05-21T21:37:04.954Z,77.52
2023-05-21T21:39:32.777Z,77.72
2023-05-21T21:42:00.577Z,77.79
2023-05-21T21:44:34.474Z,77.65
2023-05-21T21:47:02.133Z,77.97
2023-05-21T21:49:29.681Z,78.03
2023-05-21T21:51:58.010Z,78.15
2023-05-21T21:54:25.635Z,78.22
2023-05-21T21:56:53.582Z,78.18
2023-05-21T21:59:22.464Z,77.72
2023-05-21T22:01:50.257Z,77.86
2023-05-21T22:04:17.904Z,77.64
2023-05-21T22:06:45.974Z,77.99
2023-05-21T22:09:13.676Z,78.05
2023-05-21T22:11:41.547Z,77.91
2023-05-21T22:14:09.155Z,77.77
2023-05-21T22:16:36.733Z,77.39
2023-05-21T22:19:04.524Z,77.87
2023-05-21T22:21:33.195Z,77.47
2023-05-21T22:24:00.951Z,77.90
2023-05-21T22:26:28.529Z,77.57
2023-05-21T22:28:56.284Z,78.29
2023-05-21T22:31:24.063Z,78.16
2023-05-21T22:33:52.047Z,77.77
2023-05-21T22:36:19.709Z,78.26
2023-05-21T22:38:47.277Z,78.12
2023-05-21T22:41:15.001Z,78.56
2023-05-21T22:43:42.949Z,78.08
2023-05-21T22:46:10.860Z,78.31
2023-05-21T22:48:41.894Z,78.56
2023-05-21T22:51:11.413Z,78.70
2023-05-21T22:53:39.024Z,78.27
2023-05-21T22:56:06.951Z,78.53
2023-05-21T22:58:34.590Z,78.36
2023-05-21T23:01:02.626Z,78.15
2023-05-21T23:03:30.439Z,78.09
2023-05-21T23:05:58.106Z,78.02
2023-05-21T23:08:25.914Z,78.34
2023-05-21T23:10:53.528Z,78.39
2023-05-21T23:13:21.552Z,78.62
2023-05-21T23:15:50.823Z,78.42
2023-05-21T23:18:18.476Z,78.67
2023-05-21T23:20:46.148Z,78.18
2023-05-21T23:23:13.779Z,78.72
2023-05-21T23:25:41.350Z,78.70
2023-05-21T23:28:09.023Z,78.80
2023-05-21T23:30:36.808Z,78.79
2023-05-21T23:33:04.678Z,78.36
2023-05-21T23:35:32.367Z,78.48
2023-05-21T23:38:00.047Z,78.79
2023-05-21T23:40:27.642Z,78.66
2023-05-21T23:42:55.257Z,78.41
2023-05-21T23:45:23.378Z,78.35
2023-05-21T23:47:51.188Z,78.61
2023-05-21T23:50:19.505Z,78.54
2023-05-21T23:52:47.425Z,78.81
2023-05-21T23:55:15.713Z,78.65
2023-05-21T23:57:43.399Z,79.21
